BGO weather

Bergen Airport Flesland
Bergen, Hordaland, Norway

Public forecast

Using degrees Celsius for public forecast. Weather courtesy of forecast.io.

METAR (pilot weather report)

Retrieved 2019/03/20 01:50 UTC (49 minutes ago):

ENBR 200150Z VRB02KT 9999 FEW008 SCT030 06/05 Q1015 RMK WIND 1200FT 28016KT

TAF (pilot weather forecast)

Forecast is more than 12 hours old.

Retrieved 2019/03/19 00:57 UTC (1 day ago):

TAF ENBR 192300Z 2000/2024 18015KT 3000 RADZ BR BKN004 BECMG 2000/2002 26008KT 9999 -SHRA SCT018TCU PROB30 TEMPO 2003/2015 SHRA BKN018CB BECMG 2016/2018 18012KT BECMG 2021/2024 18018G28KT 4000 RADZ BR BKN006